Time;durP1;ratioP1;P1;durP2;ratioP2;P2;SDS_P1;SDS_P2;PMS_P1;PMS_P2;Temp;Humidity;BMP_temperature;BMP_pressure;BME280_temperature;BME280_humidity;BME280_pressure;Samples;Min_cycle;Max_cycle;Signal;HPM_P1;HPM_P2
2023/06/21 00:02:19;;;;;;;5.80;4.00;;;25.80;89.50;;;;;;5064116;28;20494;-56
2023/06/21 00:04:46;;;;;;;6.17;3.87;;;25.80;89.50;;;;;;5069030;28;20841;-57
2023/06/21 00:07:12;;;;;;;6.07;4.57;;;25.80;89.50;;;;;;5070852;28;20798;-56
2023/06/21 00:09:39;;;;;;;7.03;4.63;;;25.80;89.50;;;;;;5075607;28;20491;-57
2023/06/21 00:12:08;;;;;;;5.77;3.70;;;25.80;89.50;;;;;;5071537;28;20477;-56
2023/06/21 00:14:35;;;;;;;5.37;4.30;;;25.80;89.50;;;;;;5072486;28;20458;-57
2023/06/21 00:17:01;;;;;;;4.03;3.63;;;25.80;89.50;;;;;;5072608;28;20464;-55
2023/06/21 00:19:28;;;;;;;9.17;5.20;;;25.80;89.50;;;;;;5068447;28;20460;-57
2023/06/21 00:21:56;;;;;;;5.77;4.43;;;25.80;89.50;;;;;;5067287;28;20484;-57
2023/06/21 00:24:23;;;;;;;5.90;4.50;;;25.80;89.40;;;;;;5065012;28;21017;-57
2023/06/21 00:26:50;;;;;;;4.93;4.30;;;25.80;89.50;;;;;;5064541;28;21282;-54
2023/06/21 00:29:18;;;;;;;4.70;4.20;;;25.80;89.40;;;;;;5063698;28;20461;-56
2023/06/21 00:31:45;;;;;;;7.07;5.50;;;25.80;89.40;;;;;;5064839;28;20908;-56
2023/06/21 00:34:12;;;;;;;7.23;4.73;;;25.80;89.50;;;;;;5065335;28;20453;-58
2023/06/21 00:36:41;;;;;;;5.27;4.50;;;25.80;89.40;;;;;;5066319;28;20467;-55
2023/06/21 00:39:08;;;;;;;3.90;3.17;;;25.80;89.40;;;;;;5068715;28;20859;-56
2023/06/21 00:41:35;;;;;;;5.33;4.07;;;25.80;89.40;;;;;;5065659;28;20487;-55
2023/06/21 00:44:01;;;;;;;9.33;5.27;;;25.80;89.40;;;;;;5067599;28;20461;-56
2023/06/21 00:46:30;;;;;;;4.87;4.00;;;25.80;89.30;;;;;;5066441;28;20485;-57
2023/06/21 00:48:58;;;;;;;8.03;4.93;;;25.80;89.30;;;;;;5066173;28;20888;-56
2023/06/21 00:51:25;;;;;;;4.43;4.00;;;25.80;89.30;;;;;;5067122;28;20464;-56
2023/06/21 00:53:56;;;;;;;6.27;3.97;;;25.80;89.30;;;;;;5068069;28;20450;-57
2023/06/21 00:56:23;;;;;;;5.00;3.97;;;25.80;89.30;;;;;;5065878;28;21076;-57
2023/06/21 00:58:49;;;;;;;5.50;4.40;;;25.80;89.30;;;;;;5066166;28;20465;-57
2023/06/21 01:01:16;;;;;;;4.90;4.50;;;25.80;89.20;;;;;;5064461;28;20508;-56
2023/06/21 01:03:44;;;;;;;4.30;3.77;;;25.80;89.20;;;;;;5068204;28;20471;-57
2023/06/21 01:06:18;;;;;;;4.20;3.30;;;25.80;89.10;;;;;;5067248;28;20456;-56
2023/06/21 01:08:54;;;;;;;3.80;3.50;;;25.80;89.20;;;;;;5065682;28;21067;-57
2023/06/21 01:11:25;;;;;;;4.73;3.90;;;25.80;89.10;;;;;;5064016;28;20467;-56
2023/06/21 01:14:06;;;;;;;4.60;4.20;;;25.80;89.00;;;;;;5067728;28;20468;-57
2023/06/21 01:16:38;;;;;;;5.90;4.63;;;25.80;89.00;;;;;;5065660;28;20811;-57
2023/06/21 01:19:08;;;;;;;4.67;4.27;;;25.80;89.00;;;;;;5068048;28;20456;-55
2023/06/21 01:21:36;;;;;;;5.30;4.80;;;25.80;89.00;;;;;;5066186;28;20599;-56
2023/06/21 01:24:25;;;;;;;4.23;3.83;;;25.80;88.90;;;;;;5067137;28;20494;-57
2023/06/21 01:27:27;;;;;;;4.97;4.27;;;25.80;88.90;;;;;;5067200;28;20982;-57
2023/06/21 01:30:00;;;;;;;6.43;4.77;;;25.80;88.90;;;;;;5071934;28;20459;-57
2023/06/21 01:32:29;;;;;;;5.73;4.30;;;25.80;88.90;;;;;;5067152;28;20475;-57
2023/06/21 01:34:56;;;;;;;3.93;3.53;;;25.70;88.70;;;;;;5069180;28;21207;-57
2023/06/21 01:37:25;;;;;;;3.73;3.43;;;25.70;88.70;;;;;;5072010;28;20457;-58
2023/06/21 01:39:52;;;;;;;5.07;4.10;;;25.80;88.70;;;;;;5073497;28;20475;-56
2023/06/21 01:42:19;;;;;;;4.90;4.07;;;25.70;88.60;;;;;;5068813;28;20492;-56
2023/06/21 01:44:46;;;;;;;4.30;3.90;;;25.80;88.60;;;;;;5064364;28;20461;-57
2023/06/21 01:47:14;;;;;;;5.23;4.83;;;25.70;88.60;;;;;;5065687;28;20465;-55
2023/06/21 01:49:43;;;;;;;5.40;3.57;;;25.80;88.70;;;;;;5066200;28;20531;-56
2023/06/21 01:52:10;;;;;;;4.13;3.43;;;25.80;88.50;;;;;;5060207;28;20461;-56
2023/06/21 01:54:41;;;;;;;6.10;4.10;;;25.80;88.50;;;;;;5066889;28;20468;-56
2023/06/21 01:57:10;;;;;;;5.30;3.30;;;25.80;88.50;;;;;;5065602;28;20465;-56
2023/06/21 01:59:37;;;;;;;4.00;3.40;;;25.70;88.40;;;;;;5065511;28;20477;-55
2023/06/21 02:02:06;;;;;;;5.57;3.93;;;25.80;88.40;;;;;;5066409;28;20497;-57
2023/06/21 02:04:35;;;;;;;5.87;4.33;;;25.70;88.40;;;;;;5062784;28;20876;-56
2023/06/21 02:07:03;;;;;;;5.23;4.40;;;25.70;88.20;;;;;;5066287;28;20453;-55
2023/06/21 02:09:31;;;;;;;5.80;3.50;;;25.70;88.30;;;;;;5065735;28;20466;-57
2023/06/21 02:12:00;;;;;;;4.17;3.77;;;25.70;88.20;;;;;;5067925;28;20445;-57
2023/06/21 02:14:27;;;;;;;4.30;3.57;;;25.70;88.20;;;;;;5067184;28;20464;-57
2023/06/21 02:16:54;;;;;;;5.60;4.50;;;25.70;88.20;;;;;;5067634;28;20457;-57
2023/06/21 02:19:22;;;;;;;4.50;4.10;;;25.70;88.10;;;;;;5065061;28;20465;-56
2023/06/21 02:21:50;;;;;;;4.90;4.37;;;25.70;88.10;;;;;;5064850;28;20515;-56
2023/06/21 02:24:17;;;;;;;6.10;4.23;;;25.70;88.00;;;;;;5067054;28;20472;-56
2023/06/21 02:26:44;;;;;;;5.33;3.70;;;25.70;88.00;;;;;;5068785;28;20456;-57
2023/06/21 02:29:11;;;;;;;4.17;3.77;;;25.70;88.00;;;;;;5067206;28;20460;-55
2023/06/21 02:31:38;;;;;;;4.13;3.67;;;25.70;88.00;;;;;;5067451;28;20460;-57
2023/06/21 02:34:04;;;;;;;3.90;3.50;;;25.70;88.00;;;;;;5064476;28;20488;-56
2023/06/21 02:36:31;;;;;;;4.73;4.10;;;25.70;87.90;;;;;;5062706;28;21257;-56
2023/06/21 02:38:59;;;;;;;4.03;3.63;;;25.70;87.90;;;;;;5065901;28;20821;-57
2023/06/21 02:41:26;;;;;;;3.77;3.47;;;25.70;87.90;;;;;;5066898;28;20978;-57
2023/06/21 02:43:52;;;;;;;4.63;3.70;;;25.70;87.80;;;;;;5067182;28;20464;-56
2023/06/21 02:46:20;;;;;;;3.87;3.57;;;25.70;87.90;;;;;;5068178;28;20805;-56
2023/06/21 02:48:47;;;;;;;4.30;3.50;;;25.70;87.80;;;;;;5067377;28;20518;-55
2023/06/21 02:51:13;;;;;;;3.87;3.53;;;25.70;87.80;;;;;;5071249;28;20509;-57
2023/06/21 02:53:40;;;;;;;4.70;4.10;;;25.70;87.80;;;;;;5063501;28;20472;-57
2023/06/21 02:56:08;;;;;;;5.10;4.57;;;25.70;87.80;;;;;;5063450;28;20518;-57
2023/06/21 02:58:35;;;;;;;6.30;3.80;;;25.70;87.70;;;;;;5063814;28;20860;-57
2023/06/21 03:01:02;;;;;;;5.17;4.30;;;25.70;87.70;;;;;;5063508;28;20899;-56
2023/06/21 03:03:29;;;;;;;3.97;3.57;;;25.70;87.70;;;;;;5063442;28;20572;-57
2023/06/21 03:05:56;;;;;;;5.17;3.60;;;25.70;87.60;;;;;;5065948;28;20452;-56
2023/06/21 03:08:22;;;;;;;3.67;3.37;;;25.70;87.60;;;;;;5064385;28;20467;-57
2023/06/21 03:10:49;;;;;;;3.47;3.17;;;25.70;87.60;;;;;;5064916;28;20465;-56
2023/06/21 03:13:17;;;;;;;6.60;3.97;;;25.70;87.60;;;;;;5062617;28;20469;-56
2023/06/21 03:15:44;;;;;;;4.50;3.97;;;25.70;87.50;;;;;;5061574;28;20465;-57
2023/06/21 03:18:12;;;;;;;4.70;3.73;;;25.70;87.60;;;;;;5064815;28;20471;-57
2023/06/21 03:20:40;;;;;;;4.07;3.30;;;25.70;87.50;;;;;;5062640;28;20610;-56
2023/06/21 03:23:06;;;;;;;4.70;3.70;;;25.70;87.50;;;;;;5060429;28;20472;-57
2023/06/21 03:25:33;;;;;;;3.93;3.53;;;25.70;87.50;;;;;;5062915;28;20467;-55
2023/06/21 03:28:00;;;;;;;4.43;4.03;;;25.70;88.30;;;;;;5062528;28;21050;-58
2023/06/21 03:30:28;;;;;;;4.43;3.67;;;25.70;87.60;;;;;;5062475;28;20463;-55
2023/06/21 03:32:55;;;;;;;4.00;3.60;;;25.70;87.40;;;;;;5062296;28;20511;-57
2023/06/21 03:35:22;;;;;;;4.20;3.80;;;25.70;87.40;;;;;;5063029;28;20470;-57
2023/06/21 03:37:49;;;;;;;4.90;4.40;;;25.70;87.40;;;;;;5064687;28;20911;-56
2023/06/21 03:40:16;;;;;;;3.60;3.30;;;25.70;87.40;;;;;;5060503;28;20453;-57
2023/06/21 03:42:43;;;;;;;4.87;3.77;;;25.70;87.30;;;;;;5060848;28;20516;-58
2023/06/21 03:45:11;;;;;;;3.87;3.57;;;25.70;87.30;;;;;;5062996;28;20461;-55
2023/06/21 03:47:42;;;;;;;4.00;3.60;;;25.70;87.30;;;;;;5067683;28;20447;-55
2023/06/21 03:50:09;;;;;;;4.10;3.70;;;25.70;88.10;;;;;;5062542;28;20464;-56
2023/06/21 03:52:36;;;;;;;7.30;4.57;;;25.70;87.30;;;;;;5061864;28;21612;-56
2023/06/21 03:55:04;;;;;;;4.93;4.07;;;25.70;87.30;;;;;;5063361;28;20462;-57
2023/06/21 03:57:30;;;;;;;3.73;3.20;;;25.70;87.30;;;;;;5064671;28;20457;-57
2023/06/21 03:59:57;;;;;;;4.47;4.07;;;25.70;87.30;;;;;;5061180;28;20452;-57
2023/06/21 04:02:24;;;;;;;6.07;4.17;;;25.70;87.30;;;;;;5063419;28;20487;-54
2023/06/21 04:04:52;;;;;;;4.83;4.30;;;25.70;87.30;;;;;;5062545;28;20591;-56
2023/06/21 04:07:21;;;;;;;4.50;3.70;;;25.70;87.30;;;;;;5062218;28;20675;-57
2023/06/21 04:09:49;;;;;;;4.33;3.57;;;25.70;87.30;;;;;;5065207;28;20591;-57
2023/06/21 04:12:16;;;;;;;4.33;3.93;;;25.70;87.60;;;;;;5063519;28;20976;-55
2023/06/21 04:14:42;;;;;;;4.63;3.40;;;25.70;87.30;;;;;;5065434;28;21228;-57
2023/06/21 04:17:09;;;;;;;5.43;3.57;;;25.70;87.30;;;;;;5064033;28;20960;-56
2023/06/21 04:19:36;;;;;;;4.40;4.00;;;25.70;87.20;;;;;;5059022;28;20463;-54
2023/06/21 04:22:04;;;;;;;4.87;4.37;;;25.70;87.20;;;;;;5061887;28;20481;-56
2023/06/21 04:24:31;;;;;;;4.43;3.20;;;25.70;87.30;;;;;;5063462;28;20489;-56
2023/06/21 04:26:58;;;;;;;4.00;3.60;;;25.70;87.30;;;;;;5062279;28;20457;-56
2023/06/21 04:29:26;;;;;;;3.40;3.07;;;25.70;87.30;;;;;;5064460;28;20536;-56
2023/06/21 04:31:53;;;;;;;4.53;3.90;;;25.60;87.10;;;;;;5064421;28;20464;-56
2023/06/21 04:34:20;;;;;;;3.70;3.40;;;25.70;87.30;;;;;;5061830;28;20979;-56
2023/06/21 04:36:47;;;;;;;3.63;3.33;;;25.70;87.30;;;;;;5065108;28;20466;-57
2023/06/21 04:39:16;;;;;;;3.77;3.47;;;25.70;87.20;;;;;;5064237;28;20453;-57
2023/06/21 04:41:42;;;;;;;4.00;3.60;;;25.70;87.20;;;;;;5063879;28;20457;-56
2023/06/21 04:44:09;;;;;;;3.47;2.73;;;25.70;87.30;;;;;;5062411;28;20555;-54
2023/06/21 04:46:36;;;;;;;4.30;3.90;;;25.70;87.30;;;;;;5065697;28;20448;-56
2023/06/21 04:49:04;;;;;;;3.33;3.03;;;25.70;87.30;;;;;;5064865;28;20960;-55
2023/06/21 04:51:30;;;;;;;3.87;3.27;;;25.70;87.20;;;;;;5067452;28;20571;-51
2023/06/21 04:53:58;;;;;;;3.40;3.10;;;25.70;87.30;;;;;;5070479;28;20472;-56
2023/06/21 04:56:27;;;;;;;3.80;3.50;;;25.70;87.20;;;;;;5067854;28;20457;-56
2023/06/21 04:58:53;;;;;;;4.23;3.93;;;25.60;87.10;;;;;;5066016;28;20464;-57
2023/06/21 05:01:20;;;;;;;3.93;3.50;;;25.70;87.20;;;;;;5065771;28;20513;-57
2023/06/21 05:03:48;;;;;;;5.30;3.37;;;25.70;87.20;;;;;;5067862;28;21010;-55
2023/06/21 05:06:15;;;;;;;3.77;3.47;;;25.60;87.10;;;;;;5069317;28;20510;-55
2023/06/21 05:08:41;;;;;;;4.93;4.50;;;25.70;87.10;;;;;;5071219;28;20468;-56
2023/06/21 05:11:08;;;;;;;3.90;3.60;;;25.70;87.10;;;;;;5071166;28;20467;-57
2023/06/21 05:13:36;;;;;;;4.47;4.07;;;25.70;87.10;;;;;;5073355;28;20461;-55
2023/06/21 05:16:03;;;;;;;4.07;3.73;;;25.60;87.10;;;;;;5069393;28;20462;-57
2023/06/21 05:18:30;;;;;;;3.90;3.30;;;25.60;87.20;;;;;;5073460;28;20468;-57
2023/06/21 05:20:56;;;;;;;4.00;3.47;;;25.70;87.40;;;;;;5073144;28;20526;-55
2023/06/21 05:23:23;;;;;;;3.90;3.20;;;25.60;87.40;;;;;;5072475;28;20495;-56
2023/06/21 05:25:50;;;;;;;4.10;3.70;;;25.70;87.60;;;;;;5069860;28;20542;-56
2023/06/21 05:28:16;;;;;;;4.63;4.10;;;25.60;87.60;;;;;;5068119;28;20941;-56
2023/06/21 05:30:44;;;;;;;3.60;3.30;;;25.60;87.70;;;;;;5066924;28;20468;-55
2023/06/21 05:33:11;;;;;;;4.17;3.77;;;25.60;87.70;;;;;;5067726;28;20461;-57
2023/06/21 05:35:38;;;;;;;4.50;3.77;;;25.60;87.80;;;;;;5066586;28;20471;-55
2023/06/21 05:38:04;;;;;;;4.40;4.00;;;25.60;87.80;;;;;;5067953;28;20556;-57
2023/06/21 05:40:31;;;;;;;4.53;4.10;;;25.60;87.80;;;;;;5065547;28;20996;-56
2023/06/21 05:43:01;;;;;;;4.20;3.80;;;25.60;88.00;;;;;;5066679;28;20504;-57
2023/06/21 05:45:27;;;;;;;5.10;4.20;;;25.60;88.00;;;;;;5064718;28;24038;-55
2023/06/21 05:47:55;;;;;;;4.17;3.70;;;25.60;88.00;;;;;;5067201;28;20541;-56
2023/06/21 05:50:22;;;;;;;3.43;3.13;;;25.60;88.10;;;;;;5063541;28;20915;-57
2023/06/21 05:52:49;;;;;;;4.47;4.17;;;25.60;88.10;;;;;;5066276;28;20471;-57
2023/06/21 05:55:16;;;;;;;4.83;4.07;;;25.60;88.10;;;;;;5062147;28;20468;-57
2023/06/21 05:57:42;;;;;;;3.70;3.40;;;25.60;88.20;;;;;;5066167;28;20661;-54
2023/06/21 06:00:11;;;;;;;4.27;3.70;;;25.60;88.30;;;;;;5062352;28;20462;-53
2023/06/21 06:02:37;;;;;;;4.10;3.80;;;25.60;88.30;;;;;;5062655;28;21619;-55
2023/06/21 06:05:06;;;;;;;4.40;4.00;;;25.60;88.40;;;;;;5063556;28;20468;-54
2023/06/21 06:07:33;;;;;;;4.37;3.97;;;25.70;88.90;;;;;;5062130;28;21866;-53
2023/06/21 06:09:59;;;;;;;4.10;3.70;;;25.70;89.20;;;;;;5064261;28;20504;-54
2023/06/21 06:12:26;;;;;;;4.57;3.93;;;25.70;89.20;;;;;;5060921;28;20463;-56
2023/06/21 06:14:53;;;;;;;4.53;4.13;;;25.70;89.20;;;;;;5062178;28;20471;-56
2023/06/21 06:17:19;;;;;;;3.90;3.53;;;25.70;89.20;;;;;;5061501;28;20515;-54
2023/06/21 06:19:46;;;;;;;3.93;3.63;;;25.70;89.10;;;;;;5062387;28;20478;-55
2023/06/21 06:22:14;;;;;;;6.13;4.60;;;25.70;89.20;;;;;;5060812;28;20465;-55
2023/06/21 06:24:41;;;;;;;6.33;4.70;;;25.70;89.50;;;;;;5063131;28;20824;-55
2023/06/21 06:27:07;;;;;;;5.03;4.43;;;25.70;89.30;;;;;;5063681;28;20882;-54
2023/06/21 06:29:34;;;;;;;3.93;3.50;;;25.70;89.60;;;;;;5062453;28;20833;-55
2023/06/21 06:32:01;;;;;;;5.00;4.57;;;25.70;89.50;;;;;;5061143;28;20466;-53
2023/06/21 06:34:27;;;;;;;6.20;5.20;;;25.70;89.50;;;;;;5063174;28;20457;-52
2023/06/21 06:36:54;;;;;;;5.07;4.50;;;25.70;89.80;;;;;;5064509;28;20739;-54
2023/06/21 06:39:22;;;;;;;5.23;4.40;;;25.70;89.80;;;;;;5063383;28;20772;-55
2023/06/21 06:41:49;;;;;;;5.33;4.83;;;25.70;89.80;;;;;;5062231;28;20473;-56
2023/06/21 06:44:15;;;;;;;7.43;4.63;;;25.70;90.00;;;;;;5059909;28;20482;-53
2023/06/21 06:46:42;;;;;;;4.70;4.30;;;25.70;90.00;;;;;;5067874;28;20459;-54
2023/06/21 06:49:09;;;;;;;5.43;4.80;;;25.70;90.00;;;;;;5060708;28;20465;-54
2023/06/21 06:51:36;;;;;;;5.93;5.07;;;25.70;90.00;;;;;;5063539;28;20461;-56
2023/06/21 06:54:02;;;;;;;5.00;4.43;;;25.70;90.00;;;;;;5062099;28;20473;-57
2023/06/21 06:56:30;;;;;;;6.40;5.27;;;25.70;90.70;;;;;;5062643;28;20465;-56
2023/06/21 06:58:57;;;;;;;7.63;6.23;;;25.70;91.40;;;;;;5060982;28;21078;-56
2023/06/21 07:01:27;;;;;;;8.07;5.90;;;25.70;91.90;;;;;;5064611;28;20468;-55
2023/06/21 07:03:54;;;;;;;13.03;6.33;;;25.70;91.80;;;;;;5065534;28;20602;-54
2023/06/21 07:06:21;;;;;;;6.37;5.70;;;25.70;91.90;;;;;;5064876;28;20461;-56
2023/06/21 07:08:48;;;;;;;6.90;6.30;;;25.70;91.90;;;;;;5064272;28;20995;-57
2023/06/21 07:11:14;;;;;;;12.80;7.90;;;25.70;92.70;;;;;;5067446;28;20489;-56
2023/06/21 07:13:43;;;;;;;7.83;7.03;;;25.70;92.70;;;;;;5064065;28;20488;-57
2023/06/21 07:16:10;;;;;;;7.00;6.40;;;25.70;92.80;;;;;;5065725;28;20565;-57
2023/06/21 07:18:36;;;;;;;8.53;6.80;;;25.70;93.00;;;;;;5062966;28;20467;-56
2023/06/21 07:21:03;;;;;;;8.30;7.60;;;25.70;92.90;;;;;;5068942;28;20444;-57
2023/06/21 07:23:30;;;;;;;7.73;6.90;;;25.70;93.20;;;;;;5066238;28;21223;-56
2023/06/21 07:25:57;;;;;;;8.50;6.20;;;25.70;93.50;;;;;;5066725;28;20810;-55
2023/06/21 07:28:24;;;;;;;9.70;6.93;;;25.70;93.20;;;;;;5070047;28;20476;-55
2023/06/21 07:30:52;;;;;;;9.70;8.67;;;25.70;93.20;;;;;;5068055;28;20461;-54
2023/06/21 07:33:18;;;;;;;9.10;8.30;;;25.70;93.60;;;;;;5063916;28;20483;-56
2023/06/21 07:35:45;;;;;;;9.33;8.50;;;25.70;93.40;;;;;;5072665;28;20779;-55
2023/06/21 07:38:12;;;;;;;10.63;9.63;;;25.70;93.80;;;;;;5071747;28;20465;-55
2023/06/21 07:40:39;;;;;;;9.80;9.00;;;25.70;93.80;;;;;;5071094;28;20987;-54
2023/06/21 07:43:06;;;;;;;10.23;9.30;;;25.70;93.70;;;;;;5076635;28;20517;-55
2023/06/21 07:45:32;;;;;;;10.47;9.37;;;25.70;93.40;;;;;;5070400;28;20535;-54
2023/06/21 07:48:00;;;;;;;9.43;8.57;;;25.70;93.50;;;;;;5065802;28;20973;-53
2023/06/21 07:50:27;;;;;;;9.87;9.03;;;25.70;93.70;;;;;;5063398;28;20446;-54
2023/06/21 07:52:54;;;;;;;11.53;9.30;;;25.70;93.90;;;;;;5070608;28;20464;-53
2023/06/21 07:55:21;;;;;;;9.87;8.90;;;25.70;93.20;;;;;;5070024;28;20820;-54
2023/06/21 07:57:48;;;;;;;10.47;9.53;;;25.70;93.60;;;;;;5066247;28;20519;-52
2023/06/21 08:00:15;;;;;;;9.87;9.00;;;25.70;93.80;;;;;;5062570;28;20456;-52
2023/06/21 08:02:44;;;;;;;9.47;8.67;;;25.70;94.00;;;;;;5066332;28;20457;-53
2023/06/21 08:05:13;;;;;;;11.83;10.63;;;25.70;94.10;;;;;;5064088;28;21045;-52
2023/06/21 08:07:39;;;;;;;10.67;9.57;;;25.70;94.10;;;;;;5063001;28;20530;-54
2023/06/21 08:10:07;;;;;;;11.27;10.10;;;25.70;94.00;;;;;;5065012;28;20978;-54
2023/06/21 08:12:33;;;;;;;10.30;9.30;;;25.70;94.00;;;;;;5064405;28;22306;-54
2023/06/21 08:15:00;;;;;;;10.70;9.60;;;25.70;94.10;;;;;;5064948;28;20460;-56
2023/06/21 08:17:27;;;;;;;9.47;8.77;;;25.70;94.10;;;;;;5063592;28;20473;-54
2023/06/21 08:19:53;;;;;;;8.67;7.97;;;25.70;94.10;;;;;;5065363;28;20472;-54
2023/06/21 08:22:22;;;;;;;7.80;7.10;;;25.70;94.20;;;;;;5063985;28;20457;-55
2023/06/21 08:24:48;;;;;;;8.40;7.73;;;25.70;94.10;;;;;;5063778;28;20503;-53
2023/06/21 08:27:15;;;;;;;7.73;7.13;;;25.70;94.00;;;;;;5066714;28;20957;-53
2023/06/21 08:29:42;;;;;;;7.93;7.20;;;25.70;93.90;;;;;;5064073;28;21028;-52
2023/06/21 08:32:09;;;;;;;8.53;6.80;;;25.70;93.70;;;;;;5066815;28;20460;-58
2023/06/21 08:34:35;;;;;;;7.50;6.90;;;25.70;93.70;;;;;;5064516;28;20457;-61
2023/06/21 08:37:02;;;;;;;8.63;6.83;;;25.70;93.60;;;;;;5065084;28;20453;-61
2023/06/21 08:39:30;;;;;;;7.03;6.33;;;25.70;93.50;;;;;;5063956;28;20463;-60
2023/06/21 08:41:57;;;;;;;8.70;8.00;;;25.70;93.60;;;;;;5065342;28;20461;-61
2023/06/21 08:44:24;;;;;;;8.70;7.80;;;25.70;94.00;;;;;;5064678;28;20480;-61
2023/06/21 08:46:50;;;;;;;10.63;8.17;;;25.70;94.10;;;;;;5062083;28;20469;-60
2023/06/21 08:49:20;;;;;;;9.60;8.70;;;25.70;94.20;;;;;;5063145;28;20583;-61
2023/06/21 08:51:49;;;;;;;7.27;6.67;;;25.70;94.30;;;;;;5064142;28;21009;-61
2023/06/21 08:54:19;;;;;;;7.93;7.13;;;25.70;94.20;;;;;;5061575;28;20465;-61
2023/06/21 08:56:54;;;;;;;12.10;8.00;;;25.70;94.20;;;;;;5062966;28;21093;-60
2023/06/21 08:59:23;;;;;;;8.00;7.30;;;25.70;94.30;;;;;;5063921;28;20457;-60
2023/06/21 09:01:57;;;;;;;9.80;8.23;;;25.70;94.20;;;;;;5062884;28;20465;-62
2023/06/21 09:04:26;;;;;;;9.67;8.77;;;25.70;94.20;;;;;;5065677;28;20481;-61
2023/06/21 09:06:54;;;;;;;8.40;7.80;;;25.70;94.30;;;;;;5062778;28;20472;-61
2023/06/21 09:09:24;;;;;;;9.97;9.00;;;25.70;94.40;;;;;;5063786;28;20461;-61
2023/06/21 09:11:53;;;;;;;8.27;7.47;;;25.70;94.40;;;;;;5063865;28;20453;-61
2023/06/21 09:14:20;;;;;;;8.30;7.53;;;25.70;94.30;;;;;;5061156;28;20480;-60
2023/06/21 09:16:47;;;;;;;8.80;7.20;;;25.70;94.20;;;;;;5061371;28;20457;-61
2023/06/21 09:19:15;;;;;;;8.33;7.63;;;25.70;94.20;;;;;;5063428;28;20470;-60
2023/06/21 09:21:42;;;;;;;9.33;8.47;;;25.70;94.20;;;;;;5063667;28;20549;-60
2023/06/21 09:24:09;;;;;;;8.40;7.60;;;25.70;94.10;;;;;;5067953;28;20499;-61
2023/06/21 09:26:36;;;;;;;8.40;7.60;;;25.70;94.00;;;;;;5068885;28;20452;-60
2023/06/21 09:29:04;;;;;;;9.03;8.20;;;25.70;93.80;;;;;;5063055;28;20471;-61
2023/06/21 09:31:31;;;;;;;8.77;8.07;;;25.70;93.80;;;;;;5063051;28;20467;-61
2023/06/21 09:33:59;;;;;;;8.47;7.57;;;25.70;93.80;;;;;;5065206;28;20501;-61
2023/06/21 09:36:26;;;;;;;7.40;6.80;;;25.70;93.70;;;;;;5066846;28;20577;-61
2023/06/21 09:39:06;;;;;;;8.50;7.70;;;25.70;93.60;;;;;;5069930;28;20986;-61
2023/06/21 09:41:33;;;;;;;7.53;6.83;;;25.70;93.60;;;;;;5066185;28;20754;-60
2023/06/21 09:44:00;;;;;;;8.23;7.43;;;25.70;93.50;;;;;;5068684;28;20483;-61
2023/06/21 09:46:28;;;;;;;7.90;7.30;;;25.70;93.50;;;;;;5069689;28;20450;-60
2023/06/21 09:48:55;;;;;;;9.00;6.33;;;25.70;93.30;;;;;;5068915;28;20458;-60
2023/06/21 09:51:24;;;;;;;7.50;6.80;;;25.70;93.30;;;;;;5065193;28;20534;-60
2023/06/21 09:53:51;;;;;;;8.77;7.87;;;25.70;93.20;;;;;;5067938;28;20995;-60
2023/06/21 09:56:19;;;;;;;8.37;7.67;;;25.70;93.20;;;;;;5065631;28;20462;-61
2023/06/21 09:58:49;;;;;;;7.63;6.93;;;25.70;93.20;;;;;;5069487;28;20461;-61
2023/06/21 10:01:17;;;;;;;8.10;7.40;;;25.70;93.20;;;;;;5066646;28;20492;-61
2023/06/21 10:03:46;;;;;;;7.63;7.03;;;25.70;93.10;;;;;;5063524;28;21179;-61
2023/06/21 10:06:16;;;;;;;6.90;6.20;;;25.70;93.10;;;;;;5065872;28;20449;-61
2023/06/21 10:08:44;;;;;;;7.50;6.90;;;25.70;93.10;;;;;;5064626;28;20550;-61
2023/06/21 10:11:10;;;;;;;8.47;7.70;;;25.70;93.10;;;;;;5064491;28;20469;-61
2023/06/21 10:13:37;;;;;;;12.33;6.50;;;25.70;93.10;;;;;;5064087;28;20811;-61
2023/06/21 10:16:05;;;;;;;6.70;6.00;;;25.70;93.10;;;;;;5063147;28;20588;-61
2023/06/21 10:18:34;;;;;;;7.00;6.30;;;25.70;93.10;;;;;;5061083;28;20485;-61
2023/06/21 10:21:04;;;;;;;7.20;6.60;;;25.70;93.10;;;;;;5064671;28;20496;-61
2023/06/21 10:23:34;;;;;;;6.53;6.00;;;25.70;93.00;;;;;;5063943;28;20477;-61
2023/06/21 10:26:02;;;;;;;7.17;6.57;;;25.70;93.00;;;;;;5063575;28;20461;-61
2023/06/21 10:28:32;;;;;;;6.73;6.13;;;25.70;93.00;;;;;;5063103;28;20968;-61
2023/06/21 10:31:02;;;;;;;6.97;6.37;;;25.70;92.90;;;;;;5065066;28;20457;-60
2023/06/21 10:33:31;;;;;;;8.53;7.03;;;25.70;93.10;;;;;;5060604;28;20460;-61
2023/06/21 10:36:02;;;;;;;6.03;5.53;;;25.70;93.00;;;;;;5066219;28;20543;-60
2023/06/21 10:38:38;;;;;;;7.40;6.60;;;25.70;92.90;;;;;;5063393;28;20458;-60
2023/06/21 10:41:05;;;;;;;7.00;6.40;;;25.70;93.00;;;;;;5067300;28;20440;-60
2023/06/21 10:43:32;;;;;;;7.70;7.00;;;25.70;93.00;;;;;;5065416;28;20471;-61
2023/06/21 10:46:01;;;;;;;9.70;6.80;;;25.70;93.10;;;;;;5067037;28;20486;-60
2023/06/21 10:48:31;;;;;;;6.70;5.77;;;25.70;93.00;;;;;;5064244;28;20456;-60
2023/06/21 10:51:01;;;;;;;8.53;6.40;;;25.70;93.00;;;;;;5063805;28;20488;-61
2023/06/21 10:53:30;;;;;;;8.13;7.33;;;25.70;93.00;;;;;;5067019;28;20461;-60
2023/06/21 10:55:58;;;;;;;9.10;8.07;;;25.70;93.10;;;;;;5068744;28;21043;-60
2023/06/21 10:58:26;;;;;;;8.30;6.60;;;25.70;93.10;;;;;;5069589;28;20805;-60
2023/06/21 11:00:52;;;;;;;9.17;8.40;;;25.70;93.10;;;;;;5061614;28;20467;-60
2023/06/21 11:03:25;;;;;;;9.70;8.90;;;25.70;93.10;;;;;;5060561;28;20474;-60
2023/06/21 11:05:54;;;;;;;7.47;6.70;;;25.70;93.10;;;;;;5063124;28;20443;-61
2023/06/21 11:08:31;;;;;;;8.97;8.17;;;25.70;93.10;;;;;;5060102;28;20548;-60
2023/06/21 11:10:58;;;;;;;9.00;8.10;;;25.80;93.20;;;;;;5062180;28;20561;-60
2023/06/21 11:13:37;;;;;;;8.90;8.20;;;25.80;93.10;;;;;;5062978;28;20470;-60
2023/06/21 11:16:11;;;;;;;9.83;8.93;;;25.80;93.20;;;;;;5062490;28;20515;-60
2023/06/21 11:18:38;;;;;;;9.23;8.47;;;25.80;93.10;;;;;;5061079;28;20461;-60
2023/06/21 11:21:06;;;;;;;9.97;8.27;;;25.80;93.10;;;;;;5062595;28;20446;-60
2023/06/21 11:23:49;;;;;;;9.60;8.57;;;25.70;93.00;;;;;;5059792;28;20564;-60
2023/06/21 11:26:16;;;;;;;9.47;8.77;;;25.80;93.20;;;;;;5062241;28;20983;-60
2023/06/21 11:28:45;;;;;;;8.70;7.90;;;25.70;93.00;;;;;;5060009;28;20454;-61
2023/06/21 11:31:14;;;;;;;9.97;9.07;;;25.80;93.10;;;;;;5059828;28;20984;-60
2023/06/21 11:33:55;;;;;;;9.40;8.60;;;25.80;93.00;;;;;;5064958;28;20465;-60
2023/06/21 11:36:27;;;;;;;10.10;9.03;;;25.80;93.00;;;;;;5067246;28;20440;-60
2023/06/21 11:39:25;;;;;;;9.03;8.33;;;25.80;92.90;;;;;;5067161;28;20494;-60
2023/06/21 11:41:59;;;;;;;8.03;7.43;;;25.80;92.90;;;;;;5064051;28;20539;-60
2023/06/21 11:44:31;;;;;;;8.27;7.67;;;25.80;92.80;;;;;;5059796;28;20575;-60
2023/06/21 11:47:17;;;;;;;10.30;8.47;;;25.80;92.70;;;;;;5064187;28;20928;-61
2023/06/21 11:49:49;;;;;;;8.03;7.33;;;25.80;92.60;;;;;;5065290;28;20463;-60
2023/06/21 11:52:17;;;;;;;7.23;6.53;;;25.70;92.50;;;;;;5063809;28;21276;-60
2023/06/21 11:54:45;;;;;;;8.60;6.70;;;25.70;92.50;;;;;;5062584;28;20476;-60
2023/06/21 11:57:11;;;;;;;8.07;7.20;;;25.80;92.50;;;;;;5062249;28;20579;-60
2023/06/21 11:59:38;;;;;;;7.93;7.20;;;25.80;92.40;;;;;;5060555;28;20459;-61
2023/06/21 12:02:15;;;;;;;7.23;6.73;;;25.80;92.40;;;;;;5064689;28;20472;-61
2023/06/21 12:04:43;;;;;;;7.50;6.90;;;25.80;92.40;;;;;;5065986;28;20473;-60
2023/06/21 12:07:10;;;;;;;7.20;6.60;;;25.80;92.70;;;;;;5065462;28;20981;-60
2023/06/21 12:09:38;;;;;;;7.67;7.07;;;25.70;92.30;;;;;;5065569;28;20465;-60
2023/06/21 12:12:08;;;;;;;7.30;6.70;;;25.80;92.30;;;;;;5064882;28;20457;-60
2023/06/21 12:14:35;;;;;;;7.47;6.77;;;25.70;92.30;;;;;;5062611;28;21029;-60
2023/06/21 12:17:02;;;;;;;8.83;7.93;;;25.70;92.20;;;;;;5065663;28;20472;-61
2023/06/21 12:19:31;;;;;;;7.40;6.70;;;25.80;92.20;;;;;;5063315;28;20996;-60
2023/06/21 12:22:02;;;;;;;7.50;6.83;;;25.70;92.10;;;;;;5065090;28;20467;-60
2023/06/21 12:24:29;;;;;;;8.00;7.40;;;25.80;92.20;;;;;;5066444;28;20930;-60
2023/06/21 12:26:58;;;;;;;7.50;6.80;;;25.80;92.10;;;;;;5064698;28;20972;-61
2023/06/21 12:29:27;;;;;;;7.20;6.63;;;25.80;92.10;;;;;;5064553;28;20475;-61
2023/06/21 12:31:56;;;;;;;7.50;6.90;;;25.80;92.10;;;;;;5067554;28;20453;-60
2023/06/21 12:34:24;;;;;;;7.63;6.90;;;25.80;92.10;;;;;;5066644;28;20864;-53
2023/06/21 12:36:51;;;;;;;7.40;6.70;;;25.80;92.00;;;;;;5065884;28;20460;-58
2023/06/21 12:39:19;;;;;;;8.70;8.00;;;25.80;92.00;;;;;;5066696;28;21064;-60
2023/06/21 12:41:45;;;;;;;7.40;6.80;;;25.80;92.00;;;;;;5067779;28;20831;-52
2023/06/21 12:44:21;;;;;;;7.73;7.23;;;25.80;92.00;;;;;;5063508;28;20479;-49
2023/06/21 12:46:49;;;;;;;7.73;7.13;;;25.80;92.10;;;;;;5066552;28;20535;-63
2023/06/21 12:49:16;;;;;;;7.77;6.90;;;25.80;92.20;;;;;;5068253;28;20908;-56
2023/06/21 12:51:45;;;;;;;8.63;7.93;;;25.80;92.30;;;;;;5066022;28;20467;-59